Погода Грабовкана 2 недели

Гомельская область, Белоруссия

17 - 30 июня
  • 17июня
    Сегодня
    +17°
    +23°
    Пасмурно, дожди с грозами
    ВремяПогодаТемператураВлажностьДавлениеВетер, м/сВероятность осадков
    00:00Облачно с прояснениями+18°C84 %747 мм3.1 м/с11 %
    03:00Пасмурно, небольшой дождь+18°C87 %746 мм3.3 м/с50 %
    06:00Пасмурно, небольшой дождь+17°C92 %746 мм3.5 м/с72 %
    09:00Пасмурно, небольшой дождь+18°C91 %745 мм3.9 м/с68 %
    12:00Пасмурно, небольшой дождь+20°C84 %746 мм4.6 м/с70 %
    15:00Пасмурно, дожди с грозами+21°C80 %746 мм5.0 м/с72 %
    18:00Небольшая облачность, ливень+21°C87 %746 мм5.6 м/с84 %
    21:00Облачно с прояснениями+20°C89 %747 мм3.4 м/с47 %
  • 18июня
    Вторник
    +17°
    +27°
    Ясно и безоблачно
    ВремяПогодаТемператураВлажностьДавлениеВетер, м/сВероятность осадков
    00:00Облачно с прояснениями+19°C90 %747 мм3.8 м/с10 %
    03:00Облачно с прояснениями+18°C92 %748 мм3.9 м/с2 %
    06:00Небольшая облачность+17°C93 %749 мм3.9 м/с2 %
    09:00Практически безоблачно+20°C78 %750 мм5.2 м/с2 %
    12:00Ясно и безоблачно+24°C62 %751 мм6.1 м/с7 %
    15:00Ясно и безоблачно+26°C54 %751 мм6.1 м/с5 %
    18:00Практически безоблачно+25°C58 %752 мм5.3 м/с3 %
    21:00Небольшая облачность+22°C80 %752 мм2.6 м/с2 %
  • 19июня
    Среда
    +20°
    +28°
    Облачно с прояснениями
    ВремяПогодаТемператураВлажностьДавлениеВетер, м/сВероятность осадков
    00:00Ясно и безоблачно+20°C81 %752 мм2.9 м/с2 %
    03:00Облачно с прояснениями+18°C91 %753 мм3.0 м/с2 %
    06:00Ясно и безоблачно+18°C92 %753 мм2.4 м/с2 %
    09:00Небольшая облачность+22°C81 %753 мм3.5 м/с2 %
    12:00Облачно с прояснениями+26°C61 %753 мм4.7 м/с18 %
    15:00Облачно с прояснениями+28°C66 %753 мм6.0 м/с14 %
    18:00Облачно с прояснениями+27°C62 %751 мм5.7 м/с14 %
    21:00Ясно и безоблачно+25°C74 %750 мм4.5 м/с2 %
  • 20июня
    Четверг
    +14°
    +22°
    Пасмурно, дождь
    ВремяПогодаТемператураВлажностьДавлениеВетер, м/сВероятность осадков
    00:00Облачно с прояснениями+22°C73 %750 мм4.4 м/с3 %
    03:00Небольшая облачность+21°C70 %748 мм4.8 м/с9 %
    06:00Практически безоблачно+20°C72 %746 мм5.3 м/с21 %
    09:00Небольшая облачность, возможен дождь с грозой+20°C75 %745 мм6.3 м/с42 %
    12:00Пасмурно, дождь+21°C89 %746 мм6.9 м/с66 %
    15:00Пасмурно, дождь+20°C84 %749 мм7.9 м/с65 %
    18:00Ясно и безоблачно+20°C56 %750 мм7.2 м/с29 %
    21:00Ясно и безоблачно+18°C63 %752 мм4.4 м/с9 %
  • 21июня
    Пятница
    +13°
    +24°
    Ясно и безоблачно
    ВремяПогодаТемператураВлажностьДавлениеВетер, м/сВероятность осадков
    00:00Ясно и безоблачно+16°C68 %752 мм4.0 м/с2 %
    03:00Ясно и безоблачно+15°C77 %753 мм4.3 м/с2 %
    06:00Ясно и безоблачно+15°C81 %753 мм3.7 м/с2 %
    09:00Небольшая облачность+18°C73 %753 мм4.8 м/с2 %
    12:00Облачно с прояснениями+21°C55 %753 мм5.4 м/с2 %
    15:00Ясно и безоблачно+22°C51 %752 мм5.8 м/с2 %
    18:00Ясно и безоблачно+22°C54 %751 мм5.6 м/с4 %
    21:00Ясно и безоблачно+19°C73 %751 мм2.9 м/с2 %
Мы используем cookies
Соглашаюсь